Time;durP1;ratioP1;P1;durP2;ratioP2;P2;SDS_P1;SDS_P2;PMS_P1;PMS_P2;Temp;Humidity;BMP_temperature;BMP_pressure;BME280_temperature;BME280_humidity;BME280_pressure;Samples;Min_cycle;Max_cycle;Signal;HPM_P1;HPM_P2
2023/11/30 00:00:14;;;;;;;;;;;;;;;-1.58;77.64;100090.36;106747;1256;65502;-80
2023/11/30 00:03:00;;;;;;;;;;;;;;;-1.57;77.82;100088.34;106599;1258;75279;-79
2023/11/30 00:05:27;;;;;;;;;;;;;;;-1.55;77.62;100083.30;106648;1254;124642;-80
2023/11/30 00:07:54;;;;;;;;;;;;;;;-1.53;77.56;100079.14;106754;1259;60293;-79
2023/11/30 00:10:20;;;;;;;;;;;;;;;-1.52;77.57;100076.96;106542;1255;124981;-79
2023/11/30 00:12:47;;;;;;;;;;;;;;;-1.50;77.81;100079.81;106808;1259;66534;-78
2023/11/30 00:15:14;;;;;;;;;;;;;;;-1.51;77.51;100083.20;106682;1260;72714;-78
2023/11/30 00:17:40;;;;;;;;;;;;;;;-1.56;77.41;100084.98;106542;1260;124449;-79
2023/11/30 00:20:07;;;;;;;;;;;;;;;-1.64;77.27;100082.40;106530;1258;60560;-79
2023/11/30 00:22:34;;;;;;;;;;;;;;;-1.74;77.22;100079.02;106413;1259;124423;-78
2023/11/30 00:25:00;;;;;;;;;;;;;;;-1.82;77.29;100080.45;106142;1255;64473;-85
2023/11/30 00:27:27;;;;;;;;;;;;;;;-1.85;77.46;100082.28;106703;1256;71738;-78
2023/11/30 00:29:53;;;;;;;;;;;;;;;-1.90;77.43;100080.56;105942;1255;125447;-79
2023/11/30 00:32:20;;;;;;;;;;;;;;;-1.91;77.77;100080.52;106769;1254;60374;-79
2023/11/30 00:34:47;;;;;;;;;;;;;;;-1.92;77.70;100084.62;106713;1259;123632;-83
2023/11/30 00:37:13;;;;;;;;;;;;;;;-1.92;77.69;100082.33;106681;1254;66289;-83
2023/11/30 00:39:40;;;;;;;;;;;;;;;-1.93;77.80;100082.83;106850;1256;72728;-83
2023/11/30 00:42:06;;;;;;;;;;;;;;;-1.96;77.76;100079.88;106758;1255;123508;-83
2023/11/30 00:44:33;;;;;;;;;;;;;;;-2.05;77.50;100081.02;106795;1261;60478;-83
2023/11/30 00:46:59;;;;;;;;;;;;;;;-2.18;77.34;100085.34;106566;1260;123623;-79
2023/11/30 00:49:26;;;;;;;;;;;;;;;-2.35;77.25;100078.56;106732;1258;64853;-80
2023/11/30 00:51:53;;;;;;;;;;;;;;;-2.53;77.26;100078.27;106631;1254;123774;-80
2023/11/30 00:54:19;;;;;;;;;;;;;;;-2.65;77.34;100081.23;106646;1254;60325;-79
2023/11/30 00:56:46;;;;;;;;;;;;;;;-2.80;77.39;100082.49;106529;1258;60150;-83
2023/11/30 00:59:12;;;;;;;;;;;;;;;-2.92;77.59;100088.91;106590;1254;123750;-82
2023/11/30 01:01:39;;;;;;;;;;;;;;;-3.03;77.75;100093.48;106792;1267;66402;-84
2023/11/30 01:04:06;;;;;;;;;;;;;;;-3.13;77.77;100091.41;106640;1258;126834;-78
2023/11/30 01:06:32;;;;;;;;;;;;;;;-3.21;78.04;100093.61;106609;1260;60568;-83
2023/11/30 01:08:59;;;;;;;;;;;;;;;-3.27;78.12;100092.67;106691;1260;60366;-84
2023/11/30 01:11:25;;;;;;;;;;;;;;;-3.33;78.38;100094.19;106421;1260;123983;-84
2023/11/30 01:13:52;;;;;;;;;;;;;;;-3.38;78.38;100095.66;106737;1254;60435;-78
2023/11/30 01:16:18;;;;;;;;;;;;;;;-3.44;78.48;100097.29;106634;1256;123910;-78
2023/11/30 01:18:45;;;;;;;;;;;;;;;-3.51;78.61;100097.70;106748;1260;59253;-84
2023/11/30 01:21:12;;;;;;;;;;;;;;;-3.59;78.52;100096.13;106689;1261;60667;-79
2023/11/30 01:23:39;;;;;;;;;;;;;;;-3.68;78.46;100094.79;106653;1256;124133;-79
2023/11/30 01:26:06;;;;;;;;;;;;;;;-3.77;78.57;100093.64;106746;1260;66260;-79
2023/11/30 01:28:33;;;;;;;;;;;;;;;-3.85;78.71;100096.66;106541;1259;123904;-80
2023/11/30 01:30:59;;;;;;;;;;;;;;;-3.93;78.74;100090.11;106624;1254;60445;-79
2023/11/30 01:33:26;;;;;;;;;;;;;;;-3.98;78.93;100087.69;106623;1255;59176;-79
2023/11/30 01:35:53;;;;;;;;;;;;;;;-4.02;79.01;100091.17;106685;1257;123664;-79
2023/11/30 01:38:20;;;;;;;;;;;;;;;-4.04;79.18;100095.12;106741;1260;66341;-79
2023/11/30 01:40:47;;;;;;;;;;;;;;;-4.04;79.45;100092.53;106599;1260;124237;-84
2023/11/30 01:43:15;;;;;;;;;;;;;;;-4.01;79.63;100090.69;106805;1257;60429;-84
2023/11/30 01:45:42;;;;;;;;;;;;;;;-3.98;79.76;100088.91;106829;1254;59269;-84
2023/11/30 01:48:09;;;;;;;;;;;;;;;-3.94;79.88;100087.65;106618;1254;74633;-79
2023/11/30 01:50:35;;;;;;;;;;;;;;;-3.89;79.90;100087.61;106749;1259;65921;-79
2023/11/30 01:53:02;;;;;;;;;;;;;;;-3.85;80.07;100088.09;106568;1257;124650;-84
2023/11/30 01:55:29;;;;;;;;;;;;;;;-3.81;80.13;100084.27;106547;1260;60652;-80
2023/11/30 01:57:55;;;;;;;;;;;;;;;-3.76;80.16;100082.73;106718;1254;124430;-79
2023/11/30 02:00:22;;;;;;;;;;;;;;;-3.73;80.13;100079.23;106716;1254;72022;-79
2023/11/30 02:02:48;;;;;;;;;;;;;;;-3.67;80.36;100076.65;106572;1268;65311;-79
2023/11/30 02:05:15;;;;;;;;;;;;;;;-3.63;80.27;100076.40;106678;1255;124530;-79
2023/11/30 02:07:42;;;;;;;;;;;;;;;-3.58;80.32;100076.63;106669;1259;60566;-78
2023/11/30 02:10:09;;;;;;;;;;;;;;;-3.54;80.32;100072.66;106691;1254;124377;-79
2023/11/30 02:12:35;;;;;;;;;;;;;;;-3.49;80.28;100066.45;106512;1256;73490;-80
2023/11/30 02:15:03;;;;;;;;;;;;;;;-3.43;80.35;100067.18;106648;1257;64874;-80
2023/11/30 02:17:29;;;;;;;;;;;;;;;-3.39;80.23;100064.53;106546;1260;124240;-79
2023/11/30 02:19:56;;;;;;;;;;;;;;;-3.35;80.23;100067.95;106656;1260;60559;-79
2023/11/30 02:22:22;;;;;;;;;;;;;;;-3.30;80.21;100066.89;106580;1258;124809;-79
2023/11/30 02:24:49;;;;;;;;;;;;;;;-3.27;80.28;100067.98;106667;1254;74119;-78
2023/11/30 02:27:16;;;;;;;;;;;;;;;-3.22;80.25;100073.10;106760;1259;64272;-78
2023/11/30 02:29:42;;;;;;;;;;;;;;;-3.17;80.25;100075.02;106488;1257;124549;-79
2023/11/30 02:32:09;;;;;;;;;;;;;;;-3.12;80.21;100075.51;106781;1267;60566;-79
2023/11/30 02:34:36;;;;;;;;;;;;;;;-3.08;80.14;100076.13;106711;1256;124860;-79
2023/11/30 02:37:02;;;;;;;;;;;;;;;-3.07;79.99;100074.48;106742;1257;73892;-80
2023/11/30 02:39:29;;;;;;;;;;;;;;;-3.07;79.90;100067.77;106526;1257;66130;-79
2023/11/30 02:41:55;;;;;;;;;;;;;;;-3.10;79.69;100066.38;106682;1254;124267;-80
2023/11/30 02:44:22;;;;;;;;;;;;;;;-3.14;79.61;100067.52;106676;1260;60403;-79
2023/11/30 02:46:49;;;;;;;;;;;;;;;-3.14;79.72;100068.52;106506;1255;124575;-79
2023/11/30 02:49:17;;;;;;;;;;;;;;;-3.13;79.67;100064.49;106754;1254;73842;-79
2023/11/30 02:51:44;;;;;;;;;;;;;;;-3.11;79.70;100067.33;106589;1260;125739;-80
2023/11/30 02:54:11;;;;;;;;;;;;;;;-3.11;79.56;100068.02;106571;1254;72807;-84
2023/11/30 02:56:40;;;;;;;;;;;;;;;-3.10;79.50;100068.45;106785;1257;61300;-84
2023/11/30 02:59:07;;;;;;;;;;;;;;;-3.08;79.43;100061.70;106634;1254;125505;-84
2023/11/30 03:01:33;;;;;;;;;;;;;;;-3.07;79.42;100060.93;106529;1254;73028;-78
2023/11/30 03:04:00;;;;;;;;;;;;;;;-3.03;79.49;100060.31;106643;1257;124608;-77
2023/11/30 03:06:26;;;;;;;;;;;;;;;-2.98;79.48;100062.03;106768;1260;71088;-79
2023/11/30 03:08:53;;;;;;;;;;;;;;;-2.94;79.48;100055.47;106768;1254;60517;-78
2023/11/30 03:11:19;;;;;;;;;;;;;;;-2.90;79.49;100055.53;106695;1254;124382;-79
2023/11/30 03:13:46;;;;;;;;;;;;;;;-2.87;79.30;100052.09;106744;1256;73979;-81
2023/11/30 03:16:13;;;;;;;;;;;;;;;-2.87;79.19;100050.05;106423;1260;125275;-84
2023/11/30 03:18:40;;;;;;;;;;;;;;;-2.85;79.24;100050.02;106769;1260;76174;-84
2023/11/30 03:21:14;;;;;;;;;;;;;;;-2.83;79.17;100049.61;106814;1259;60905;-84
2023/11/30 03:23:41;;;;;;;;;;;;;;;-2.82;79.25;100050.20;106746;1254;123641;-84
2023/11/30 03:26:08;;;;;;;;;;;;;;;-2.83;79.21;100046.88;106688;1254;73867;-84
2023/11/30 03:28:34;;;;;;;;;;;;;;;-2.89;78.98;100049.43;106792;1254;124435;-83
2023/11/30 03:31:01;;;;;;;;;;;;;;;-2.93;79.10;100050.54;106760;1254;73452;-83
2023/11/30 03:33:27;;;;;;;;;;;;;;;-2.95;78.97;100049.86;106764;1254;60619;-83
2023/11/30 03:35:55;;;;;;;;;;;;;;;-2.96;78.99;100045.33;106822;1254;123661;-83
2023/11/30 03:38:22;;;;;;;;;;;;;;;-2.97;79.08;100044.40;106696;1259;74311;-79
2023/11/30 03:40:49;;;;;;;;;;;;;;;-3.04;78.80;100045.17;106732;1256;123683;-79
2023/11/30 03:43:15;;;;;;;;;;;;;;;-3.10;78.82;100045.29;106715;1254;72740;-78
2023/11/30 03:45:42;;;;;;;;;;;;;;;-3.13;78.86;100047.80;106647;1254;60472;-82
2023/11/30 03:48:09;;;;;;;;;;;;;;;-3.13;79.18;100045.22;106830;1254;60437;-82
2023/11/30 03:50:35;;;;;;;;;;;;;;;-3.10;79.30;100051.07;106862;1254;75531;-79
2023/11/30 03:53:02;;;;;;;;;;;;;;;-3.10;79.13;100048.69;106737;1254;123791;-83
2023/11/30 03:55:28;;;;;;;;;;;;;;;-3.10;79.22;100048.52;106606;1257;71566;-78
2023/11/30 03:57:55;;;;;;;;;;;;;;;-3.08;79.22;100048.49;106051;1260;126236;-78
2023/11/30 04:00:22;;;;;;;;;;;;;;;-3.06;79.33;100046.73;106119;1261;60427;-84
2023/11/30 04:02:48;;;;;;;;;;;;;;;-3.06;79.22;100043.60;106714;1254;72787;-83
2023/11/30 04:05:15;;;;;;;;;;;;;;;-3.06;79.40;100040.21;106567;1255;122801;-84
2023/11/30 04:07:43;;;;;;;;;;;;;;;-3.06;79.31;100036.92;106601;1261;71391;-84
2023/11/30 04:10:10;;;;;;;;;;;;;;;-3.07;79.31;100036.21;106597;1256;124201;-84
2023/11/30 04:12:36;;;;;;;;;;;;;;;-3.07;79.13;100032.10;106858;1255;60476;-83
2023/11/30 04:15:04;;;;;;;;;;;;;;;-3.05;79.50;100031.54;106794;1254;71799;-83
2023/11/30 04:17:31;;;;;;;;;;;;;;;-3.03;79.41;100029.56;106508;1260;124743;-82
2023/11/30 04:19:57;;;;;;;;;;;;;;;-3.03;79.40;100027.39;106841;1254;71091;-83
2023/11/30 04:22:24;;;;;;;;;;;;;;;-3.04;79.26;100023.16;106651;1256;124585;-83
2023/11/30 04:24:50;;;;;;;;;;;;;;;-3.05;79.37;100022.98;106855;1254;60616;-83
2023/11/30 04:27:17;;;;;;;;;;;;;;;-3.03;79.26;100017.77;106691;1254;72349;-84
2023/11/30 04:29:44;;;;;;;;;;;;;;;-3.04;79.20;100021.00;106817;1260;124669;-83
2023/11/30 04:32:10;;;;;;;;;;;;;;;-3.01;79.35;100021.30;106789;1254;72933;-84
2023/11/30 04:34:37;;;;;;;;;;;;;;;-2.97;79.43;100020.89;106616;1260;124957;-78
2023/11/30 04:37:04;;;;;;;;;;;;;;;-2.96;79.35;100021.29;106794;1254;60480;-79
2023/11/30 04:39:30;;;;;;;;;;;;;;;-2.95;79.46;100019.02;106774;1257;71798;-84
2023/11/30 04:41:57;;;;;;;;;;;;;;;-2.93;79.26;100018.26;106689;1253;124230;-80
2023/11/30 04:44:27;;;;;;;;;;;;;;;-2.89;79.32;100020.89;106676;1260;74082;-85
2023/11/30 04:46:53;;;;;;;;;;;;;;;-2.91;79.08;100022.65;106695;1257;125302;-80
2023/11/30 04:49:20;;;;;;;;;;;;;;;-2.95;78.99;100022.29;106824;1257;60428;-84
2023/11/30 04:51:46;;;;;;;;;;;;;;;-2.96;78.98;100025.94;106765;1260;124895;-84
2023/11/30 04:54:13;;;;;;;;;;;;;;;-2.97;79.01;100030.52;106824;1259;65944;-84
2023/11/30 04:56:40;;;;;;;;;;;;;;;-2.99;78.92;100028.71;106828;1254;73053;-77
2023/11/30 04:59:06;;;;;;;;;;;;;;;-2.99;78.97;100030.38;106594;1254;124342;-80
2023/11/30 05:01:33;;;;;;;;;;;;;;;-2.97;79.04;100028.29;106708;1254;60605;-86
2023/11/30 05:04:00;;;;;;;;;;;;;;;-2.95;79.18;100023.45;106631;1256;124387;-85
2023/11/30 05:06:27;;;;;;;;;;;;;;;-2.91;79.22;100021.45;106676;1254;66039;-84
2023/11/30 05:08:54;;;;;;;;;;;;;;;-2.91;79.11;100018.89;106732;1254;71385;-82
2023/11/30 05:11:20;;;;;;;;;;;;;;;-2.90;79.17;100011.55;106802;1254;124839;-85
2023/11/30 05:13:47;;;;;;;;;;;;;;;-2.90;79.00;100018.94;106704;1254;60474;-83
2023/11/30 05:16:14;;;;;;;;;;;;;;;-2.92;78.94;100015.37;106105;1256;124252;-83
2023/11/30 05:18:41;;;;;;;;;;;;;;;-2.94;78.92;100013.52;106276;1253;64699;-82
2023/11/30 05:21:07;;;;;;;;;;;;;;;-2.97;78.92;100013.90;106163;1254;72661;-73
2023/11/30 05:23:34;;;;;;;;;;;;;;;-3.04;78.91;100010.16;106012;1254;123709;-74
2023/11/30 05:26:01;;;;;;;;;;;;;;;-3.06;78.89;100010.38;106021;1260;60620;-73
2023/11/30 05:28:27;;;;;;;;;;;;;;;-3.11;78.80;100010.52;105931;1256;124216;-75
2023/11/30 05:30:54;;;;;;;;;;;;;;;-3.18;78.78;100009.90;106193;1257;67550;-86
2023/11/30 05:33:21;;;;;;;;;;;;;;;-3.24;78.78;100010.66;106869;1254;71417;-85
2023/11/30 05:35:48;;;;;;;;;;;;;;;-3.29;78.85;100014.94;106738;1254;123825;-85
2023/11/30 05:38:14;;;;;;;;;;;;;;;-3.34;78.78;100014.48;106866;1254;60528;-85
2023/11/30 05:40:41;;;;;;;;;;;;;;;-3.43;78.77;100021.89;106699;1254;123971;-83
2023/11/30 05:43:08;;;;;;;;;;;;;;;-3.48;78.81;100021.04;106720;1259;66236;-84
2023/11/30 05:45:34;;;;;;;;;;;;;;;-3.54;78.81;100021.53;106855;1257;72711;-86
2023/11/30 05:48:01;;;;;;;;;;;;;;;-3.61;78.81;100021.18;106529;1257;123782;-84
2023/11/30 05:50:28;;;;;;;;;;;;;;;-3.69;78.83;100015.31;106669;1254;60368;-84
2023/11/30 05:52:55;;;;;;;;;;;;;;;-3.75;78.92;100018.39;106658;1254;123835;-85
2023/11/30 05:55:21;;;;;;;;;;;;;;;-3.78;78.93;100018.84;106878;1254;65553;-85
2023/11/30 05:57:48;;;;;;;;;;;;;;;-3.79;79.12;100019.40;106446;1254;148264;-84
2023/11/30 06:00:15;;;;;;;;;;;;;;;-3.82;79.19;100019.21;106921;1254;60439;-80
2023/11/30 06:02:42;;;;;;;;;;;;;;;-3.84;79.28;100021.64;106791;1254;60415;-84
2023/11/30 06:05:09;;;;;;;;;;;;;;;-3.87;79.32;100019.02;106672;1254;124158;-81
2023/11/30 06:07:36;;;;;;;;;;;;;;;-3.89;79.39;100014.81;106726;1254;65259;-82
2023/11/30 06:10:03;;;;;;;;;;;;;;;-3.93;79.22;100018.83;106628;1256;124447;-80
2023/11/30 06:12:30;;;;;;;;;;;;;;;-3.96;79.36;100021.48;107132;1252;60447;-86
2023/11/30 06:14:56;;;;;;;;;;;;;;;-4.01;79.31;100026.48;107055;1253;60412;-87
2023/11/30 06:17:23;;;;;;;;;;;;;;;-4.06;79.33;100026.95;106669;1253;124112;-84
2023/11/30 06:19:50;;;;;;;;;;;;;;;-4.11;79.34;100026.80;106687;1253;64067;-85
2023/11/30 06:22:17;;;;;;;;;;;;;;;-4.14;79.36;100023.35;106752;1253;123997;-85
2023/11/30 06:24:43;;;;;;;;;;;;;;;-4.18;79.48;100019.94;106733;1254;58430;-85
2023/11/30 06:27:10;;;;;;;;;;;;;;;-4.26;79.32;100020.27;106741;1254;60344;-85
2023/11/30 06:29:37;;;;;;;;;;;;;;;-4.35;79.20;100024.91;106603;1257;124236;-84
2023/11/30 06:32:04;;;;;;;;;;;;;;;-4.45;79.13;100030.02;106741;1254;66595;-84
2023/11/30 06:34:32;;;;;;;;;;;;;;;-4.53;79.26;100029.61;106644;1254;124013;-85
2023/11/30 06:36:59;;;;;;;;;;;;;;;-4.58;79.40;100037.13;106884;1254;59288;-84
2023/11/30 06:39:26;;;;;;;;;;;;;;;-4.61;79.59;100039.14;106928;1253;59694;-83
2023/11/30 06:41:58;;;;;;;;;;;;;;;-4.62;79.65;100037.29;106772;1257;123832;-80
2023/11/30 06:44:25;;;;;;;;;;;;;;;-4.62;79.83;100039.85;107142;1254;64720;-80
2023/11/30 06:46:52;;;;;;;;;;;;;;;-4.62;79.87;100039.17;107087;1256;124258;-80
2023/11/30 06:49:19;;;;;;;;;;;;;;;-4.61;79.97;100041.31;106791;1266;60632;-84
2023/11/30 06:51:45;;;;;;;;;;;;;;;-4.61;80.01;100043.93;106576;1256;124544;-81
2023/11/30 06:54:12;;;;;;;;;;;;;;;-4.58;80.10;100045.16;106499;1254;292386;-80
2023/11/30 06:56:39;;;;;;;;;;;;;;;-4.55;80.20;100041.25;106939;1254;65949;-80
2023/11/30 06:59:06;;;;;;;;;;;;;;;-4.50;80.37;100048.67;106472;1254;124661;-80
2023/11/30 07:01:34;;;;;;;;;;;;;;;-4.45;80.22;100050.49;106598;1258;61147;-81
2023/11/30 07:04:01;;;;;;;;;;;;;;;-4.40;80.46;100049.52;106353;1261;124816;-84
2023/11/30 07:06:30;;;;;;;;;;;;;;;-4.34;80.51;100048.64;106510;1256;73867;-81
2023/11/30 07:08:57;;;;;;;;;;;;;;;-4.25;80.49;100048.01;106694;1258;65899;-85
2023/11/30 07:11:23;;;;;;;;;;;;;;;-4.14;80.58;100051.73;106560;1254;124346;-85
2023/11/30 07:13:50;;;;;;;;;;;;;;;-4.03;80.67;100051.67;106767;1254;60476;-83
2023/11/30 07:16:17;;;;;;;;;;;;;;;-3.91;80.66;100056.81;106402;1254;124541;-85
2023/11/30 07:18:44;;;;;;;;;;;;;;;-3.77;80.70;100059.52;106655;1254;73528;-84
2023/11/30 07:21:17;;;;;;;;;;;;;;;-3.63;80.85;100057.40;106690;1254;65128;-85
2023/11/30 07:23:43;;;;;;;;;;;;;;;-3.51;80.65;100056.02;106539;1256;124682;-85
2023/11/30 07:26:11;;;;;;;;;;;;;;;-3.42;80.79;100052.88;106706;1253;60989;-85
2023/11/30 07:28:37;;;;;;;;;;;;;;;-3.31;80.66;100056.52;106528;1254;124383;-85
2023/11/30 07:31:04;;;;;;;;;;;;;;;-3.21;80.47;100056.56;106533;1254;72421;-86
2023/11/30 07:33:31;;;;;;;;;;;;;;;-3.13;80.36;100056.20;106621;1254;65072;-85
2023/11/30 07:35:57;;;;;;;;;;;;;;;-3.06;80.35;100057.23;106565;1257;124406;-84
2023/11/30 07:38:24;;;;;;;;;;;;;;;-2.95;80.26;100055.17;106653;1254;60532;-85
2023/11/30 07:40:51;;;;;;;;;;;;;;;-2.85;80.29;100052.42;106572;1254;123174;-85
2023/11/30 07:43:17;;;;;;;;;;;;;;;-2.73;80.18;100052.73;106685;1254;72269;-85
2023/11/30 07:45:44;;;;;;;;;;;;;;;-2.66;79.94;100047.48;106599;1257;124443;-84
2023/11/30 07:48:11;;;;;;;;;;;;;;;-2.58;80.02;100047.86;106690;1254;71548;-85
2023/11/30 07:50:38;;;;;;;;;;;;;;;-2.51;80.03;100048.68;106714;1253;58456;-85
2023/11/30 07:53:08;;;;;;;;;;;;;;;-2.42;79.80;100046.00;106618;1254;124476;-85
2023/11/30 07:55:36;;;;;;;;;;;;;;;-2.32;79.75;100048.83;106367;1254;72241;-85
2023/11/30 07:58:03;;;;;;;;;;;;;;;-2.27;79.56;100050.04;106740;1254;126126;-80
2023/11/30 08:00:30;;;;;;;;;;;;;;;-2.21;79.51;100047.54;107186;1253;71253;-81
2023/11/30 08:02:57;;;;;;;;;;;;;;;-2.13;79.66;100049.76;106704;1254;60543;-81
2023/11/30 08:05:24;;;;;;;;;;;;;;;-2.07;79.32;100056.29;106564;1256;124501;-82
2023/11/30 08:07:51;;;;;;;;;;;;;;;-1.98;79.32;100058.08;106625;1254;73670;-81
2023/11/30 08:10:18;;;;;;;;;;;;;;;-1.90;79.16;100056.67;106640;1253;124763;-80
2023/11/30 08:12:45;;;;;;;;;;;;;;;-1.85;78.84;100060.84;106805;1253;71456;-85
2023/11/30 08:15:15;;;;;;;;;;;;;;;-1.79;78.85;100059.98;106738;1257;60429;-81
2023/11/30 08:17:42;;;;;;;;;;;;;;;-1.74;78.48;100058.54;106683;1254;123864;-85
2023/11/30 08:20:13;;;;;;;;;;;;;;;-1.77;78.31;100059.05;106455;1254;74040;-81
2023/11/30 08:22:40;;;;;;;;;;;;;;;-1.73;78.41;100057.58;106588;1257;123820;-81
2023/11/30 08:25:07;;;;;;;;;;;;;;;-1.73;78.28;100056.23;106872;1254;71406;-81
2023/11/30 08:27:35;;;;;;;;;;;;;;;-1.74;78.09;100055.45;106600;1256;60527;-81
2023/11/30 08:30:04;;;;;;;;;;;;;;;-1.74;77.97;100056.14;106714;1254;123556;-81
2023/11/30 08:32:31;;;;;;;;;;;;;;;-1.71;78.03;100058.73;106718;1254;73581;-80
2023/11/30 08:34:58;;;;;;;;;;;;;;;-1.64;78.01;100054.22;106580;1256;123557;-80
2023/11/30 08:37:25;;;;;;;;;;;;;;;-1.44;78.49;100055.74;106803;1254;72696;-80
2023/11/30 08:39:51;;;;;;;;;;;;;;;-1.22;78.56;100055.55;106762;1254;123952;-80
2023/11/30 08:42:18;;;;;;;;;;;;;;;-1.01;78.70;100058.02;106579;1254;60460;-81
2023/11/30 08:44:45;;;;;;;;;;;;;;;-0.81;78.51;100060.59;106655;1253;72611;-81
2023/11/30 08:47:11;;;;;;;;;;;;;;;-0.65;78.43;100056.86;106581;1254;123776;-81
2023/11/30 08:49:38;;;;;;;;;;;;;;;-0.51;78.23;100056.10;106883;1254;72658;-80
2023/11/30 08:52:05;;;;;;;;;;;;;;;-0.38;78.00;100053.90;106429;1256;123722;-81
2023/11/30 08:54:32;;;;;;;;;;;;;;;-0.28;77.97;100050.05;106736;1254;60388;-81
2023/11/30 08:56:59;;;;;;;;;;;;;;;-0.14;77.80;100049.42;106633;1260;73677;-81
2023/11/30 08:59:26;;;;;;;;;;;;;;;-0.04;77.31;100047.58;106659;1258;123915;-80
2023/11/30 09:01:52;;;;;;;;;;;;;;;0.03;77.20;100048.11;106656;1256;71441;-80
2023/11/30 09:04:19;;;;;;;;;;;;;;;0.14;77.29;100051.33;106843;1254;124197;-80
2023/11/30 09:06:46;;;;;;;;;;;;;;;0.21;77.17;100056.91;106919;1253;59989;-80
2023/11/30 09:09:13;;;;;;;;;;;;;;;0.35;77.25;100050.42;106875;1253;72559;-81
2023/11/30 09:11:39;;;;;;;;;;;;;;;0.48;76.86;100055.42;106708;1254;124033;-81
2023/11/30 09:14:06;;;;;;;;;;;;;;;0.54;76.79;100054.20;106690;1254;71867;-81
2023/11/30 09:16:33;;;;;;;;;;;;;;;0.62;76.75;100056.69;106660;1256;124321;-81
2023/11/30 09:19:00;;;;;;;;;;;;;;;0.71;76.40;100055.47;106646;1256;60959;-81
2023/11/30 09:21:27;;;;;;;;;;;;;;;0.76;76.23;100052.62;106711;1254;73785;-81
2023/11/30 09:23:53;;;;;;;;;;;;;;;0.85;75.95;100049.62;106482;1255;124388;-81
2023/11/30 09:26:21;;;;;;;;;;;;;;;0.96;76.08;100052.61;106524;1254;71048;-81
2023/11/30 09:28:48;;;;;;;;;;;;;;;1.05;75.70;100052.91;106421;1258;124953;-81
2023/11/30 09:31:14;;;;;;;;;;;;;;;1.17;75.85;100050.39;106723;1254;58814;-81
2023/11/30 09:33:42;;;;;;;;;;;;;;;1.26;75.87;100048.62;106831;1254;72561;-81
2023/11/30 09:36:09;;;;;;;;;;;;;;;1.32;75.66;100048.25;106615;1254;123723;-80
2023/11/30 09:38:35;;;;;;;;;;;;;;;1.34;75.31;100051.13;106790;1258;71266;-81
2023/11/30 09:41:05;;;;;;;;;;;;;;;1.35;75.34;100046.14;106656;1253;123533;-81
2023/11/30 09:43:32;;;;;;;;;;;;;;;1.39;75.28;100040.83;106704;1254;60223;-81
2023/11/30 09:45:59;;;;;;;;;;;;;;;1.48;75.29;100034.52;106700;1253;124052;-80
2023/11/30 09:48:26;;;;;;;;;;;;;;;1.48;74.86;100034.88;106831;1254;66311;-80
2023/11/30 09:50:52;;;;;;;;;;;;;;;1.36;74.87;100034.10;106705;1254;72699;-80
2023/11/30 09:53:19;;;;;;;;;;;;;;;1.37;75.20;100038.64;106624;1258;124116;-80
2023/11/30 09:55:46;;;;;;;;;;;;;;;1.47;75.31;100040.34;106729;1256;60500;-80
2023/11/30 09:58:15;;;;;;;;;;;;;;;1.55;75.13;100039.50;106687;1253;123705;-81
2023/11/30 10:00:41;;;;;;;;;;;;;;;1.65;75.26;100037.23;106741;1259;66774;-80
2023/11/30 10:03:09;;;;;;;;;;;;;;;1.76;75.24;100034.65;106793;1254;72490;-80
2023/11/30 10:05:36;;;;;;;;;;;;;;;1.83;75.05;100029.65;106687;1254;123901;-81
2023/11/30 10:08:03;;;;;;;;;;;;;;;1.85;74.82;100031.10;106660;1260;58805;-81
2023/11/30 10:10:29;;;;;;;;;;;;;;;1.77;74.66;100029.35;106357;1254;123797;-80
2023/11/30 10:12:56;;;;;;;;;;;;;;;1.72;74.79;100028.59;106573;1255;65117;-80
2023/11/30 10:15:23;;;;;;;;;;;;;;;1.77;74.90;100026.23;106635;1254;72677;-80
2023/11/30 10:17:50;;;;;;;;;;;;;;;1.77;74.67;100022.27;106798;1258;124051;-80
2023/11/30 10:20:17;;;;;;;;;;;;;;;1.66;74.40;100019.34;106849;1256;60426;-80
2023/11/30 10:22:44;;;;;;;;;;;;;;;1.58;74.36;100021.16;106661;1254;123576;-80
2023/11/30 10:25:12;;;;;;;;;;;;;;;1.51;74.46;100018.24;106791;1254;65107;-81
2023/11/30 10:27:40;;;;;;;;;;;;;;;1.49;74.28;100016.39;106574;1254;71092;-81
2023/11/30 10:30:07;;;;;;;;;;;;;;;1.47;74.42;100013.20;106599;1254;123640;-81
2023/11/30 10:32:35;;;;;;;;;;;;;;;1.46;74.42;100010.70;106767;1255;59350;-81
2023/11/30 10:35:03;;;;;;;;;;;;;;;1.46;74.34;100005.69;106818;1254;124645;-81
2023/11/30 10:37:31;;;;;;;;;;;;;;;1.43;74.40;100003.82;106898;1253;65044;-81
2023/11/30 10:39:58;;;;;;;;;;;;;;;1.38;74.15;100001.85;106745;1257;124626;-81
2023/11/30 10:42:24;;;;;;;;;;;;;;;1.41;74.48;100002.50;106799;1254;60485;-80
2023/11/30 10:44:52;;;;;;;;;;;;;;;1.44;74.27;100004.39;106901;1254;60357;-80
2023/11/30 10:47:21;;;;;;;;;;;;;;;1.43;74.26;100002.94;106906;1254;124444;-80
2023/11/30 10:49:48;;;;;;;;;;;;;;;1.46;74.37;100002.06;106797;1254;67261;-81
2023/11/30 10:52:15;;;;;;;;;;;;;;;1.54;74.67;99998.84;106568;1256;124786;-81
2023/11/30 10:54:54;;;;;;;;;;;;;;;1.64;74.57;99996.88;106647;1254;59571;-80
2023/11/30 10:57:21;;;;;;;;;;;;;;;1.68;74.68;99993.61;106735;1255;60391;-80
2023/11/30 10:59:50;;;;;;;;;;;;;;;1.74;74.42;99999.95;106544;1257;124101;-79
2023/11/30 11:02:17;;;;;;;;;;;;;;;1.74;74.54;99999.66;106693;1255;65001;-80
2023/11/30 11:04:43;;;;;;;;;;;;;;;1.73;74.23;100003.90;106748;1254;124473;-80
2023/11/30 11:07:13;;;;;;;;;;;;;;;1.72;74.19;99997.83;106771;1253;60421;-81
2023/11/30 11:09:41;;;;;;;;;;;;;;;1.81;74.30;99993.73;106923;1254;60444;-81
2023/11/30 11:12:24;;;;;;;;;;;;;;;1.91;74.39;99990.75;106771;1258;123812;-80
2023/11/30 11:15:11;;;;;;;;;;;;;;;2.03;74.46;99989.39;107116;1253;65185;-81
2023/11/30 11:18:05;;;;;;;;;;;;;;;2.12;74.49;99982.58;106699;1254;123516;-80
2023/11/30 11:20:32;;;;;;;;;;;;;;;2.20;74.04;99976.86;106865;1254;60529;-80
2023/11/30 11:23:02;;;;;;;;;;;;;;;2.19;73.98;99972.47;106857;1254;123586;-81
2023/11/30 11:25:30;;;;;;;;;;;;;;;2.23;73.80;99967.80;106735;1254;73940;-80
2023/11/30 11:27:57;;;;;;;;;;;;;;;2.29;74.02;99965.32;106759;1254;124444;-80
2023/11/30 11:30:26;;;;;;;;;;;;;;;2.32;74.12;99964.27;106936;1254;71585;-80
2023/11/30 11:32:56;;;;;;;;;;;;;;;2.30;73.65;99965.20;106942;1253;60479;-80
2023/11/30 11:35:23;;;;;;;;;;;;;;;2.20;73.43;99970.64;106902;1256;123644;-80
2023/11/30 11:37:50;;;;;;;;;;;;;;;2.13;73.47;99969.10;106828;1254;73581;-80
2023/11/30 11:40:17;;;;;;;;;;;;;;;2.06;73.48;99967.20;106705;1254;123916;-79
2023/11/30 11:42:43;;;;;;;;;;;;;;;1.99;73.40;99966.21;106707;1254;72740;-80
2023/11/30 11:45:10;;;;;;;;;;;;;;;1.93;73.51;99966.60;106846;1254;60426;-80
2023/11/30 11:47:37;;;;;;;;;;;;;;;1.89;73.81;99963.84;106567;1255;123893;-80
2023/11/30 11:50:04;;;;;;;;;;;;;;;1.89;73.82;99966.27;106832;1259;73922;-81
2023/11/30 11:52:30;;;;;;;;;;;;;;;1.85;73.78;99969.33;106486;1254;123663;-80
2023/11/30 11:54:58;;;;;;;;;;;;;;;1.73;73.72;99967.08;106583;1253;71403;-80
2023/11/30 11:57:34;;;;;;;;;;;;;;;1.66;73.94;99966.56;106750;1254;60459;-81
2023/11/30 12:00:05;;;;;;;;;;;;;;;1.62;74.03;99973.11;107405;1256;123538;-80
2023/11/30 12:02:34;;;;;;;;;;;;;;;1.61;74.16;99977.89;106835;1253;75048;-80
2023/11/30 12:05:11;;;;;;;;;;;;;;;1.65;74.22;99977.73;106760;1259;123620;-80
2023/11/30 12:07:48;;;;;;;;;;;;;;;1.71;74.64;99977.89;106943;1254;72813;-80
2023/11/30 12:10:39;;;;;;;;;;;;;;;1.78;74.59;99979.55;106807;1254;123759;-80
2023/11/30 12:13:06;;;;;;;;;;;;;;;1.82;74.62;99978.36;106708;1254;60433;-80
2023/11/30 12:15:33;;;;;;;;;;;;;;;1.84;74.67;99981.42;106840;1254;73885;-81
2023/11/30 12:18:03;;;;;;;;;;;;;;;1.83;74.49;99975.96;106734;1254;124116;-80
2023/11/30 12:20:30;;;;;;;;;;;;;;;1.82;74.61;99975.42;106870;1254;71393;-81
2023/11/30 12:22:57;;;;;;;;;;;;;;;1.85;74.79;99972.61;106809;1256;123990;-80
2023/11/30 12:25:24;;;;;;;;;;;;;;;1.90;74.74;99975.66;106804;1254;60444;-80